Time;durP1;ratioP1;P1;durP2;ratioP2;P2;SDS_P1;SDS_P2;PMS_P1;PMS_P2;Temp;Humidity;BMP_temperature;BMP_pressure;BME280_temperature;BME280_humidity;BME280_pressure;Samples;Min_cycle;Max_cycle;Signal;HPM_P1;HPM_P2
2022/03/01 00:01:32;;;;;;;;;;;;;;;8.96;32.48;100590.25;4491683;31;33823;-81
2022/03/01 00:04:00;;;;;;;;;;;;;;;9.34;31.97;100583.19;4499640;31;34616;-81
2022/03/01 00:06:27;;;;;;;;;;;;;;;9.37;31.90;100583.31;4498649;31;34403;-80
2022/03/01 00:08:57;;;;;;;;;;;;;;;9.39;32.03;100584.25;4499718;31;34152;-80
2022/03/01 00:11:24;;;;;;;;;;;;;;;8.97;32.72;100587.72;4499958;31;35180;-80
2022/03/01 00:13:51;;;;;;;;;;;;;;;9.27;32.06;100587.22;4499706;31;35016;-80
2022/03/01 00:16:19;;;;;;;;;;;;;;;8.74;32.69;100580.72;4494523;31;32771;-80
2022/03/01 00:18:47;;;;;;;;;;;;;;;9.19;32.24;100578.28;4487503;31;33790;-83
2022/03/01 00:21:14;;;;;;;;;;;;;;;9.84;31.23;100574.81;4488245;31;34100;-83
2022/03/01 00:23:42;;;;;;;;;;;;;;;9.83;31.45;100586.00;4500303;31;33740;-81
2022/03/01 00:26:09;;;;;;;;;;;;;;;9.22;31.68;100579.28;4499561;31;33525;-80
2022/03/01 00:28:39;;;;;;;;;;;;;;;9.19;32.12;100573.97;4498087;31;34085;-79
2022/03/01 00:31:07;;;;;;;;;;;;;;;8.72;32.60;100575.47;4496233;31;34108;-80
2022/03/01 00:33:37;;;;;;;;;;;;;;;9.05;31.90;100567.34;4499566;31;34345;-80
2022/03/01 00:36:04;;;;;;;;;;;;;;;9.18;32.30;100572.22;4498675;31;33077;-80
2022/03/01 00:38:31;;;;;;;;;;;;;;;9.52;31.47;100568.41;4487860;31;32501;-81
2022/03/01 00:40:58;;;;;;;;;;;;;;;9.59;31.34;100570.41;4496665;31;34280;-81
2022/03/01 00:43:25;;;;;;;;;;;;;;;8.97;31.91;100572.22;4499621;31;34005;-80
2022/03/01 00:45:53;;;;;;;;;;;;;;;8.45;32.90;100576.88;4499403;31;33872;-81
2022/03/01 00:48:21;;;;;;;;;;;;;;;8.97;32.16;100566.16;4497769;31;34076;-80
2022/03/01 00:50:48;;;;;;;;;;;;;;;9.21;31.59;100571.47;4499053;31;33863;-82
2022/03/01 00:53:15;;;;;;;;;;;;;;;9.45;31.30;100566.37;4493088;31;33510;-81
2022/03/01 00:55:42;;;;;;;;;;;;;;;9.81;30.54;100560.84;4498933;31;33642;-81
2022/03/01 00:58:10;;;;;;;;;;;;;;;9.52;30.92;100573.56;4491701;31;34223;-81
2022/03/01 01:00:37;;;;;;;;;;;;;;;9.20;31.58;100569.69;4499366;31;34898;-81
2022/03/01 01:03:04;;;;;;;;;;;;;;;9.14;31.41;100560.00;4499145;31;34909;-81
2022/03/01 01:05:32;;;;;;;;;;;;;;;9.72;30.94;100564.00;4498909;31;33332;-82
2022/03/01 01:07:59;;;;;;;;;;;;;;;10.31;30.03;100559.31;4499242;31;34142;-83
2022/03/01 01:10:26;;;;;;;;;;;;;;;10.10;30.25;100551.59;4498871;31;34408;-79
2022/03/01 01:12:54;;;;;;;;;;;;;;;10.07;30.46;100560.13;4498079;31;34279;-83
2022/03/01 01:15:21;;;;;;;;;;;;;;;10.05;30.04;100556.63;4499473;31;33542;-83
2022/03/01 01:17:48;;;;;;;;;;;;;;;9.32;31.33;100556.34;4498518;31;32844;-80
2022/03/01 01:20:16;;;;;;;;;;;;;;;9.84;30.96;100555.81;4498637;31;34359;-81
2022/03/01 01:22:43;;;;;;;;;;;;;;;10.30;30.40;100558.41;4482605;31;34104;-80
2022/03/01 01:25:15;;;;;;;;;;;;;;;10.03;29.92;100553.06;4487993;31;34001;-80
2022/03/01 01:27:43;;;;;;;;;;;;;;;10.08;29.81;100559.31;4499066;31;34281;-79
2022/03/01 01:30:11;;;;;;;;;;;;;;;9.57;30.44;100571.16;4499084;31;35318;-80
2022/03/01 01:32:42;;;;;;;;;;;;;;;9.62;30.39;100565.34;4498052;31;34908;-80
2022/03/01 01:35:10;;;;;;;;;;;;;;;9.37;30.64;100558.31;4490192;31;34334;-81
2022/03/01 01:37:38;;;;;;;;;;;;;;;9.99;30.09;100558.97;4493269;31;33713;-80
2022/03/01 01:40:06;;;;;;;;;;;;;;;9.15;31.25;100560.88;4482162;32;34399;-82
2022/03/01 01:42:33;;;;;;;;;;;;;;;10.16;30.01;100560.47;4496813;31;34083;-82
2022/03/01 01:45:01;;;;;;;;;;;;;;;10.22;29.94;100552.91;4499070;31;32923;-80
2022/03/01 01:47:49;;;;;;;;;;;;;;;9.52;30.82;100557.16;4498375;31;34717;-81
2022/03/01 01:50:16;;;;;;;;;;;;;;;9.83;30.30;100561.81;4498715;31;34070;-80
2022/03/01 01:52:45;;;;;;;;;;;;;;;8.25;32.45;100566.50;4498897;31;33995;-79
2022/03/01 01:55:12;;;;;;;;;;;;;;;8.99;31.58;100557.66;4498944;31;33941;-80
2022/03/01 01:57:40;;;;;;;;;;;;;;;9.78;30.65;100559.06;4497980;31;33939;-80
2022/03/01 02:00:07;;;;;;;;;;;;;;;9.82;30.35;100553.16;4497622;31;34189;-80
2022/03/01 02:02:38;;;;;;;;;;;;;;;9.16;31.48;100550.56;4484157;31;34524;-80
2022/03/01 02:05:07;;;;;;;;;;;;;;;8.97;31.91;100560.97;4482368;31;33173;-79
2022/03/01 02:07:36;;;;;;;;;;;;;;;8.92;31.78;100550.44;4496332;31;34252;-80
2022/03/01 02:10:04;;;;;;;;;;;;;;;9.41;31.56;100542.09;4498974;31;34509;-80
2022/03/01 02:12:31;;;;;;;;;;;;;;;9.60;31.22;100555.75;4498952;31;34393;-84
2022/03/01 02:14:58;;;;;;;;;;;;;;;9.90;31.01;100550.88;4498766;31;33222;-81
2022/03/01 02:17:28;;;;;;;;;;;;;;;10.16;30.62;100539.75;4498044;31;34194;-80
2022/03/01 02:19:56;;;;;;;;;;;;;;;9.73;30.92;100545.91;4498081;31;34400;-80
2022/03/01 02:22:24;;;;;;;;;;;;;;;9.64;31.35;100542.97;4498394;31;34276;-81
2022/03/01 02:24:51;;;;;;;;;;;;;;;9.86;31.34;100547.28;4497276;31;33290;-80
2022/03/01 02:27:20;;;;;;;;;;;;;;;9.42;31.80;100549.03;4498388;31;34324;-79
2022/03/01 02:29:48;;;;;;;;;;;;;;;9.41;31.88;100547.25;4498465;31;34129;-81
2022/03/01 02:32:15;;;;;;;;;;;;;;;9.89;31.03;100550.00;4498084;31;34461;-79
2022/03/01 02:34:42;;;;;;;;;;;;;;;9.54;31.26;100538.25;4498871;31;33736;-82
2022/03/01 02:37:09;;;;;;;;;;;;;;;9.65;31.49;100543.84;4486764;31;34268;-79
2022/03/01 02:39:36;;;;;;;;;;;;;;;9.91;31.16;100537.06;4497066;31;34401;-81
2022/03/01 02:42:04;;;;;;;;;;;;;;;9.32;31.77;100535.66;4497950;31;34287;-81
2022/03/01 02:44:34;;;;;;;;;;;;;;;9.99;30.93;100538.25;4498318;31;34115;-81
2022/03/01 02:47:05;;;;;;;;;;;;;;;9.77;30.98;100535.66;4497985;31;35050;-79
2022/03/01 02:49:32;;;;;;;;;;;;;;;9.88;30.94;100536.97;4497464;31;35083;-81
2022/03/01 02:51:59;;;;;;;;;;;;;;;9.33;31.47;100535.72;4483849;31;33812;-81
2022/03/01 02:54:27;;;;;;;;;;;;;;;9.42;31.71;100532.63;4498306;31;33404;-80
2022/03/01 02:56:59;;;;;;;;;;;;;;;9.73;31.14;100534.66;4498461;31;33979;-80
2022/03/01 02:59:26;;;;;;;;;;;;;;;10.04;30.30;100528.94;4497792;31;33862;-80
2022/03/01 03:01:53;;;;;;;;;;;;;;;9.96;30.46;100530.34;4498163;31;33822;-80
2022/03/01 03:04:21;;;;;;;;;;;;;;;9.65;31.12;100530.91;4496555;31;33024;-79
2022/03/01 03:06:49;;;;;;;;;;;;;;;9.92;30.95;100528.47;4498294;31;35077;-80
2022/03/01 03:09:16;;;;;;;;;;;;;;;10.03;30.71;100532.34;4498271;31;34278;-80
2022/03/01 03:11:44;;;;;;;;;;;;;;;10.16;30.82;100534.56;4487900;31;34253;-80
2022/03/01 03:14:11;;;;;;;;;;;;;;;9.98;31.12;100545.13;4484301;31;33409;-80
2022/03/01 03:16:39;;;;;;;;;;;;;;;9.96;30.56;100536.44;4498249;31;34166;-80
2022/03/01 03:19:07;;;;;;;;;;;;;;;9.63;31.12;100536.03;4497195;31;35355;-80
2022/03/01 03:21:34;;;;;;;;;;;;;;;9.79;30.91;100539.22;4497082;31;34795;-80
2022/03/01 03:24:01;;;;;;;;;;;;;;;9.84;30.74;100540.25;4498060;31;34172;-79
2022/03/01 03:26:29;;;;;;;;;;;;;;;9.82;30.98;100541.94;4497577;31;32768;-80
2022/03/01 03:28:56;;;;;;;;;;;;;;;9.98;30.79;100536.47;4497487;31;33828;-80
2022/03/01 03:31:23;;;;;;;;;;;;;;;9.81;30.91;100542.72;4498212;31;35021;-81
2022/03/01 03:33:51;;;;;;;;;;;;;;;9.95;30.91;100533.78;4496527;31;33590;-80
2022/03/01 03:36:18;;;;;;;;;;;;;;;9.78;31.28;100540.06;4498378;31;34211;-80
2022/03/01 03:38:45;;;;;;;;;;;;;;;9.68;31.25;100539.69;4499683;31;34292;-80
2022/03/01 03:41:13;;;;;;;;;;;;;;;9.62;31.08;100544.66;4499623;31;34931;-80
2022/03/01 03:43:40;;;;;;;;;;;;;;;8.13;33.05;100552.16;4500090;31;33494;-82
2022/03/01 03:46:07;;;;;;;;;;;;;;;8.71;32.31;100547.88;4499476;31;34319;-80
2022/03/01 03:48:35;;;;;;;;;;;;;;;9.23;31.68;100539.66;4499654;31;35353;-80
2022/03/01 03:51:02;;;;;;;;;;;;;;;9.55;31.22;100540.06;4499727;31;35088;-83
2022/03/01 03:53:29;;;;;;;;;;;;;;;9.27;31.42;100538.94;4500120;31;33303;-82
2022/03/01 03:55:57;;;;;;;;;;;;;;;9.74;30.61;100536.47;4499663;31;34954;-80
2022/03/01 03:58:24;;;;;;;;;;;;;;;9.10;31.45;100545.16;4499247;31;34203;-81
2022/03/01 04:00:51;;;;;;;;;;;;;;;9.24;31.68;100543.09;4499450;31;34052;-80
2022/03/01 04:03:18;;;;;;;;;;;;;;;9.43;31.62;100542.13;4499847;31;34358;-81
2022/03/01 04:05:46;;;;;;;;;;;;;;;9.37;31.26;100547.09;4500028;31;33807;-81
2022/03/01 04:08:13;;;;;;;;;;;;;;;9.13;31.35;100547.88;4499059;31;35102;-80
2022/03/01 04:10:41;;;;;;;;;;;;;;;8.93;31.80;100547.03;4499409;31;35157;-81
2022/03/01 04:13:08;;;;;;;;;;;;;;;8.95;31.88;100542.84;4499609;31;34206;-81
2022/03/01 04:15:35;;;;;;;;;;;;;;;9.17;31.49;100536.84;4500251;31;33976;-80
2022/03/01 04:18:03;;;;;;;;;;;;;;;9.34;31.06;100544.38;4498944;31;35306;-80
2022/03/01 04:20:30;;;;;;;;;;;;;;;9.16;31.49;100542.81;4487598;31;34273;-83
2022/03/01 04:22:57;;;;;;;;;;;;;;;8.37;32.07;100536.84;4483216;31;32848;-81
2022/03/01 04:25:25;;;;;;;;;;;;;;;8.70;31.92;100540.03;4494256;31;34969;-80
2022/03/01 04:27:52;;;;;;;;;;;;;;;8.68;32.04;100541.69;4498993;31;35355;-80
2022/03/01 04:30:19;;;;;;;;;;;;;;;8.73;32.27;100545.34;4499815;31;34574;-81
2022/03/01 04:32:47;;;;;;;;;;;;;;;8.55;32.57;100541.97;4499367;31;34273;-82
2022/03/01 04:35:15;;;;;;;;;;;;;;;9.02;31.83;100534.50;4499568;31;34564;-81
2022/03/01 04:37:43;;;;;;;;;;;;;;;9.13;31.83;100539.22;4496238;31;35032;-81
2022/03/01 04:40:11;;;;;;;;;;;;;;;7.80;33.25;100550.72;4489350;31;33926;-81
2022/03/01 04:42:38;;;;;;;;;;;;;;;8.11;32.96;100541.78;4496780;31;34066;-82
2022/03/01 04:45:10;;;;;;;;;;;;;;;8.62;32.41;100542.28;4498732;31;33543;-81
2022/03/01 04:47:38;;;;;;;;;;;;;;;7.50;33.84;100557.91;4497203;31;35334;-82
2022/03/01 04:50:05;;;;;;;;;;;;;;;8.16;32.52;100545.44;4492662;31;34126;-81
2022/03/01 04:52:33;;;;;;;;;;;;;;;8.34;32.08;100545.37;4488436;31;33086;-81
2022/03/01 04:55:00;;;;;;;;;;;;;;;8.66;31.77;100541.59;4499498;31;35017;-81
2022/03/01 04:57:27;;;;;;;;;;;;;;;8.20;32.83;100542.16;4492877;31;34216;-80
2022/03/01 04:59:55;;;;;;;;;;;;;;;8.29;32.77;100544.25;4497167;31;34581;-80
2022/03/01 05:02:22;;;;;;;;;;;;;;;8.27;32.59;100540.75;4498885;31;33870;-81
2022/03/01 05:04:50;;;;;;;;;;;;;;;7.89;33.43;100554.53;4499317;31;33697;-81
2022/03/01 05:07:18;;;;;;;;;;;;;;;8.69;32.34;100533.97;4498884;31;33807;-80
2022/03/01 05:09:45;;;;;;;;;;;;;;;8.72;32.26;100538.41;4498918;31;34249;-83
2022/03/01 05:12:12;;;;;;;;;;;;;;;8.82;32.04;100531.91;4499228;31;33069;-83
2022/03/01 05:14:39;;;;;;;;;;;;;;;8.45;32.39;100530.38;4498706;31;34256;-82
2022/03/01 05:17:07;;;;;;;;;;;;;;;7.48;34.04;100540.59;4490253;31;34098;-80
2022/03/01 05:19:34;;;;;;;;;;;;;;;7.20;34.34;100546.16;4499151;31;34113;-80
2022/03/01 05:22:01;;;;;;;;;;;;;;;7.92;33.04;100534.03;4498783;31;34072;-80
2022/03/01 05:24:29;;;;;;;;;;;;;;;6.87;34.99;100542.78;4497777;31;35063;-81
2022/03/01 05:26:56;;;;;;;;;;;;;;;7.89;33.71;100544.22;4499348;31;35151;-82
2022/03/01 05:29:23;;;;;;;;;;;;;;;7.50;33.53;100541.53;4499235;31;34349;-83
2022/03/01 05:31:52;;;;;;;;;;;;;;;7.89;33.60;100536.47;4498624;31;33524;-81
2022/03/01 05:34:19;;;;;;;;;;;;;;;7.68;33.79;100541.50;4499409;31;33616;-80
2022/03/01 05:36:48;;;;;;;;;;;;;;;7.47;34.04;100544.88;4499099;31;34195;-82
2022/03/01 05:39:15;;;;;;;;;;;;;;;7.47;33.93;100541.41;4498960;31;35060;-81
2022/03/01 05:41:42;;;;;;;;;;;;;;;6.80;35.00;100542.47;4499227;31;34091;-82
2022/03/01 05:44:09;;;;;;;;;;;;;;;6.83;35.25;100540.06;4499350;31;33772;-81
2022/03/01 05:46:37;;;;;;;;;;;;;;;7.01;34.62;100540.09;4497987;31;34387;-82
2022/03/01 05:49:04;;;;;;;;;;;;;;;6.64;35.03;100539.94;4495342;31;34397;-81
2022/03/01 05:51:31;;;;;;;;;;;;;;;6.87;34.59;100545.37;4496736;31;33767;-81
2022/03/01 05:53:59;;;;;;;;;;;;;;;7.19;34.14;100552.97;4495477;31;33854;-81
2022/03/01 05:56:26;;;;;;;;;;;;;;;6.86;35.18;100553.88;4494679;31;34037;-81
2022/03/01 05:58:53;;;;;;;;;;;;;;;6.02;35.37;100556.50;4496853;31;33569;-82
2022/03/01 06:01:20;;;;;;;;;;;;;;;6.93;35.12;100551.72;4498349;31;33008;-81
2022/03/01 06:03:48;;;;;;;;;;;;;;;7.04;35.72;100557.38;4497950;31;34117;-83
2022/03/01 06:06:15;;;;;;;;;;;;;;;7.52;35.00;100557.97;4497983;31;34590;-83
2022/03/01 06:08:42;;;;;;;;;;;;;;;7.42;34.48;100555.78;4498221;31;34095;-83
2022/03/01 06:11:10;;;;;;;;;;;;;;;7.33;35.29;100556.22;4497312;31;33311;-81
2022/03/01 06:13:40;;;;;;;;;;;;;;;8.08;32.72;100551.97;4498811;31;34331;-82
2022/03/01 06:16:07;;;;;;;;;;;;;;;7.44;34.00;100561.91;4498830;31;35302;-82
2022/03/01 06:18:35;;;;;;;;;;;;;;;7.01;33.64;100557.25;4498273;31;33723;-81
2022/03/01 06:21:02;;;;;;;;;;;;;;;5.72;35.59;100554.81;4485574;31;33012;-81
2022/03/01 06:23:30;;;;;;;;;;;;;;;6.08;34.81;100563.66;4495820;31;33840;-80
2022/03/01 06:25:58;;;;;;;;;;;;;;;6.71;34.19;100554.03;4482128;31;34086;-81
2022/03/01 06:28:26;;;;;;;;;;;;;;;7.10;33.08;100556.81;4483076;32;34357;-81
2022/03/01 06:30:53;;;;;;;;;;;;;;;7.44;32.51;100554.16;4481734;32;33455;-81
2022/03/01 06:33:21;;;;;;;;;;;;;;;7.87;31.94;100558.72;4483341;32;34324;-81
2022/03/01 06:35:48;;;;;;;;;;;;;;;8.23;31.10;100546.59;4497677;31;34182;-80
2022/03/01 06:38:15;;;;;;;;;;;;;;;7.81;31.37;100556.78;4496485;31;34153;-81
2022/03/01 06:40:43;;;;;;;;;;;;;;;7.41;32.04;100557.47;4498835;31;33626;-81
2022/03/01 06:43:18;;;;;;;;;;;;;;;7.99;31.58;100554.12;4498630;31;34178;-81
2022/03/01 06:45:45;;;;;;;;;;;;;;;8.37;30.43;100552.34;4497106;31;34887;-80
2022/03/01 06:48:12;;;;;;;;;;;;;;;8.27;31.10;100548.50;4498613;31;34353;-81
2022/03/01 06:50:40;;;;;;;;;;;;;;;8.00;31.16;100546.47;4498219;31;34086;-81
2022/03/01 06:53:07;;;;;;;;;;;;;;;7.14;32.28;100556.16;4498320;31;34634;-81
2022/03/01 06:55:34;;;;;;;;;;;;;;;7.86;31.46;100550.09;4498692;31;33942;-81
2022/03/01 06:58:02;;;;;;;;;;;;;;;7.71;32.23;100547.69;4482990;31;34136;-81
2022/03/01 07:00:29;;;;;;;;;;;;;;;7.76;32.03;100547.91;4498434;31;34292;-81
2022/03/01 07:02:56;;;;;;;;;;;;;;;7.54;32.38;100543.47;4497080;31;34065;-81
2022/03/01 07:05:24;;;;;;;;;;;;;;;7.86;32.31;100549.22;4498188;31;34332;-81
2022/03/01 07:07:51;;;;;;;;;;;;;;;7.62;31.97;100547.28;4498209;31;34645;-81
2022/03/01 07:10:18;;;;;;;;;;;;;;;8.15;31.01;100537.63;4498025;31;32966;-80
2022/03/01 07:12:46;;;;;;;;;;;;;;;8.19;31.42;100537.81;4499959;31;33920;-82
2022/03/01 07:15:13;;;;;;;;;;;;;;;7.73;31.70;100534.88;4500400;31;34421;-81
2022/03/01 07:17:44;;;;;;;;;;;;;;;7.99;31.16;100531.78;4499034;31;33780;-81
2022/03/01 07:20:12;;;;;;;;;;;;;;;6.83;33.36;100529.75;4498163;31;32846;-82
2022/03/01 07:22:42;;;;;;;;;;;;;;;8.41;30.66;100524.19;4500226;31;34275;-81
2022/03/01 07:25:09;;;;;;;;;;;;;;;8.63;30.29;100519.91;4500206;31;35357;-81
2022/03/01 07:27:43;;;;;;;;;;;;;;;7.20;32.63;100533.25;4490439;31;35262;-81
2022/03/01 07:30:11;;;;;;;;;;;;;;;8.52;31.20;100516.88;4484380;32;34161;-82
2022/03/01 07:32:38;;;;;;;;;;;;;;;8.57;31.02;100517.97;4484588;32;34380;-81
2022/03/01 07:35:06;;;;;;;;;;;;;;;7.87;31.58;100518.28;4484232;32;34100;-81
2022/03/01 07:37:34;;;;;;;;;;;;;;;8.09;31.47;100512.41;4491817;31;33966;-81
2022/03/01 07:40:01;;;;;;;;;;;;;;;8.23;31.55;100511.31;4500234;31;33007;-82
2022/03/01 07:42:29;;;;;;;;;;;;;;;7.06;32.82;100524.84;4499550;31;34050;-82
2022/03/01 07:44:56;;;;;;;;;;;;;;;8.54;30.42;100512.66;4500183;31;34176;-82
2022/03/01 07:47:23;;;;;;;;;;;;;;;7.84;31.51;100515.59;4500480;31;33799;-81
2022/03/01 07:49:54;;;;;;;;;;;;;;;8.49;30.73;100519.34;4500111;31;34426;-81
2022/03/01 07:52:22;;;;;;;;;;;;;;;8.26;31.08;100520.91;4499835;31;34239;-81
2022/03/01 07:54:49;;;;;;;;;;;;;;;8.20;30.37;100529.25;4500106;31;34203;-80
2022/03/01 07:57:17;;;;;;;;;;;;;;;8.14;30.41;100520.34;4498965;31;33783;-81
2022/03/01 07:59:45;;;;;;;;;;;;;;;8.28;31.19;100514.09;4498459;31;33830;-81
2022/03/01 08:02:12;;;;;;;;;;;;;;;8.31;30.03;100505.59;4500355;31;33433;-81
2022/03/01 08:04:41;;;;;;;;;;;;;;;7.96;29.94;100520.44;4500082;31;34192;-82
2022/03/01 08:07:09;;;;;;;;;;;;;;;8.23;30.62;100515.59;4499813;31;34025;-81
2022/03/01 08:09:37;;;;;;;;;;;;;;;8.66;29.59;100517.47;4499492;31;33565;-81
2022/03/01 08:12:05;;;;;;;;;;;;;;;8.90;29.16;100517.56;4500264;31;34109;-81
2022/03/01 08:14:33;;;;;;;;;;;;;;;9.14;29.00;100507.38;4499785;31;34360;-81
2022/03/01 08:17:01;;;;;;;;;;;;;;;8.24;30.51;100522.53;4494963;31;34437;-81
2022/03/01 08:19:28;;;;;;;;;;;;;;;9.36;28.44;100507.38;4499702;31;33939;-81
2022/03/01 08:21:56;;;;;;;;;;;;;;;9.46;28.59;100516.38;4499543;31;35576;-81
2022/03/01 08:24:23;;;;;;;;;;;;;;;9.05;28.40;100506.97;4499717;31;35397;-80
2022/03/01 08:26:50;;;;;;;;;;;;;;;8.22;30.08;100513.81;4498700;31;34504;-80
2022/03/01 08:29:17;;;;;;;;;;;;;;;8.87;29.21;100514.91;4500027;31;32983;-80
2022/03/01 08:31:46;;;;;;;;;;;;;;;9.33;28.22;100515.03;4490904;31;34070;-80
2022/03/01 08:34:13;;;;;;;;;;;;;;;9.35;28.10;100518.53;4496127;31;34405;-80
2022/03/01 08:36:41;;;;;;;;;;;;;;;9.66;27.77;100523.22;4485035;31;34196;-80
2022/03/01 08:39:08;;;;;;;;;;;;;;;8.63;28.37;100522.50;4485863;31;33170;-80
2022/03/01 08:41:35;;;;;;;;;;;;;;;8.01;29.81;100517.22;4494315;31;34965;-82
2022/03/01 08:44:03;;;;;;;;;;;;;;;7.99;30.13;100502.47;4499770;31;34159;-82
2022/03/01 08:46:30;;;;;;;;;;;;;;;8.35;29.41;100504.91;4498577;31;33946;-81
2022/03/01 08:48:59;;;;;;;;;;;;;;;8.89;28.50;100508.06;4499134;31;33252;-80
2022/03/01 08:51:27;;;;;;;;;;;;;;;8.17;29.27;100505.88;4499567;31;34037;-81
2022/03/01 08:53:54;;;;;;;;;;;;;;;9.19;27.23;100498.94;4499493;31;34391;-80
2022/03/01 08:56:22;;;;;;;;;;;;;;;8.83;28.31;100500.06;4500602;31;34163;-81
2022/03/01 08:58:49;;;;;;;;;;;;;;;8.81;28.58;100491.34;4497588;31;32689;-81
2022/03/01 09:01:16;;;;;;;;;;;;;;;8.08;28.88;100510.63;4499149;31;33837;-81
2022/03/01 09:03:44;;;;;;;;;;;;;;;8.63;28.58;100494.06;4499009;31;34545;-82
2022/03/01 09:06:12;;;;;;;;;;;;;;;10.01;27.00;100491.69;4499138;31;35109;-81
2022/03/01 09:08:40;;;;;;;;;;;;;;;10.55;25.87;100486.69;4499273;31;33119;-80
2022/03/01 09:11:10;;;;;;;;;;;;;;;10.67;25.49;100481.91;4488028;31;34175;-82
2022/03/01 09:13:38;;;;;;;;;;;;;;;10.80;24.97;100496.19;4498433;31;34287;-81
2022/03/01 09:16:06;;;;;;;;;;;;;;;10.12;25.55;100477.41;4499302;31;33776;-82
2022/03/01 09:18:34;;;;;;;;;;;;;;;9.95;25.50;100487.16;4499537;31;33278;-82
2022/03/01 09:21:02;;;;;;;;;;;;;;;9.92;25.46;100484.44;4498122;31;34053;-82
2022/03/01 09:23:29;;;;;;;;;;;;;;;10.69;25.22;100475.94;4499384;31;34332;-82
2022/03/01 09:25:57;;;;;;;;;;;;;;;10.61;24.96;100487.78;4498231;31;33726;-82
2022/03/01 09:28:24;;;;;;;;;;;;;;;10.04;26.14;100477.13;4499689;31;33056;-82
2022/03/01 09:30:51;;;;;;;;;;;;;;;11.30;24.40;100471.84;4498950;31;33808;-82
2022/03/01 09:33:19;;;;;;;;;;;;;;;11.13;24.77;100473.88;4500243;31;34197;-82
2022/03/01 09:35:47;;;;;;;;;;;;;;;10.38;25.18;100468.84;4499019;31;34294;-81
2022/03/01 09:38:14;;;;;;;;;;;;;;;11.09;24.63;100463.38;4497958;31;33302;-80
2022/03/01 09:40:46;;;;;;;;;;;;;;;10.78;25.54;100448.53;4499189;31;33712;-82
2022/03/01 09:43:14;;;;;;;;;;;;;;;11.52;23.50;100452.59;4499248;31;35027;-81
2022/03/01 09:45:41;;;;;;;;;;;;;;;11.32;24.12;100449.38;4499026;31;34702;-82
2022/03/01 09:48:09;;;;;;;;;;;;;;;12.22;23.02;100447.63;4499182;31;33305;-81
2022/03/01 09:50:36;;;;;;;;;;;;;;;11.80;22.97;100435.19;4497810;31;35129;-81
2022/03/01 09:53:04;;;;;;;;;;;;;;;11.70;22.76;100436.63;4498978;31;34113;-79
2022/03/01 09:55:31;;;;;;;;;;;;;;;9.97;24.98;100433.69;4499232;31;34200;-81
2022/03/01 09:57:58;;;;;;;;;;;;;;;10.07;24.87;100437.47;4498166;31;31971;-81
2022/03/01 10:00:26;;;;;;;;;;;;;;;10.14;24.64;100431.69;4498883;31;33891;-81
2022/03/01 10:02:55;;;;;;;;;;;;;;;10.27;24.78;100433.91;4499535;31;34002;-82
2022/03/01 10:05:39;;;;;;;;;;;;;;;10.99;23.21;100425.88;4499052;31;35160;-82
2022/03/01 10:08:12;;;;;;;;;;;;;;;11.24;23.72;100421.44;4497979;31;32950;-81
2022/03/01 10:10:47;;;;;;;;;;;;;;;10.64;23.54;100415.25;4499251;31;33799;-81
2022/03/01 10:13:15;;;;;;;;;;;;;;;11.23;23.49;100417.09;4497820;31;33214;-82
2022/03/01 10:15:42;;;;;;;;;;;;;;;11.54;23.51;100406.75;4497636;31;35067;-81
2022/03/01 10:18:13;;;;;;;;;;;;;;;11.90;22.96;100403.47;4499245;31;33506;-83
2022/03/01 10:20:44;;;;;;;;;;;;;;;10.51;23.62;100410.50;4498877;31;34178;-81
2022/03/01 10:23:11;;;;;;;;;;;;;;;10.80;23.47;100405.41;4497778;31;35258;-80
2022/03/01 10:25:42;;;;;;;;;;;;;;;11.60;23.35;100393.94;4499024;31;33918;-81
2022/03/01 10:28:11;;;;;;;;;;;;;;;11.30;22.17;100388.75;4495538;31;33524;-82
2022/03/01 10:30:43;;;;;;;;;;;;;;;10.01;24.04;100391.53;4488329;31;34968;-82
2022/03/01 10:33:11;;;;;;;;;;;;;;;10.82;22.96;100381.25;4492692;31;34433;-82
2022/03/01 10:35:42;;;;;;;;;;;;;;;10.81;23.05;100386.41;4498504;31;35054;-81
2022/03/01 10:38:10;;;;;;;;;;;;;;;11.37;21.95;100380.31;4484827;31;33796;-81
2022/03/01 10:40:38;;;;;;;;;;;;;;;11.75;21.76;100377.03;4485116;31;35151;-82
2022/03/01 10:43:09;;;;;;;;;;;;;;;12.10;21.93;100371.06;4497432;31;35359;-82
2022/03/01 10:45:41;;;;;;;;;;;;;;;10.93;21.60;100371.19;4497542;31;34273;-81
2022/03/01 10:48:10;;;;;;;;;;;;;;;11.14;21.91;100360.59;4498569;31;33604;-81
2022/03/01 10:50:38;;;;;;;;;;;;;;;11.91;21.39;100358.44;4498531;31;34970;-81
2022/03/01 10:53:06;;;;;;;;;;;;;;;11.59;21.65;100358.44;4497399;31;33921;-81
2022/03/01 10:55:35;;;;;;;;;;;;;;;11.60;21.95;100347.19;4497472;31;34973;-82
2022/03/01 10:58:10;;;;;;;;;;;;;;;10.76;22.19;100349.94;4498044;31;33328;-82
2022/03/01 11:00:38;;;;;;;;;;;;;;;11.70;21.15;100335.31;4496889;31;33939;-81
2022/03/01 11:03:06;;;;;;;;;;;;;;;10.96;22.13;100342.75;4498188;31;34417;-82
2022/03/01 11:05:34;;;;;;;;;;;;;;;11.54;21.17;100338.34;4497027;31;33859;-82
2022/03/01 11:08:23;;;;;;;;;;;;;;;12.28;20.98;100323.88;4489867;31;33150;-82
2022/03/01 11:10:51;;;;;;;;;;;;;;;11.60;21.86;100326.41;4494204;31;33920;-81
2022/03/01 11:13:20;;;;;;;;;;;;;;;12.66;20.57;100318.69;4498140;31;34277;-81
2022/03/01 11:16:10;;;;;;;;;;;;;;;11.89;20.98;100314.25;4497215;31;33917;-80
2022/03/01 11:18:41;;;;;;;;;;;;;;;11.73;20.80;100311.16;4497435;31;34259;-82
2022/03/01 11:21:08;;;;;;;;;;;;;;;12.19;21.21;100302.81;4498141;31;34182;-80
2022/03/01 11:23:35;;;;;;;;;;;;;;;11.88;20.52;100299.47;4498177;31;34199;-81
2022/03/01 11:26:07;;;;;;;;;;;;;;;12.76;21.04;100292.00;4496682;31;34177;-80
2022/03/01 11:28:40;;;;;;;;;;;;;;;12.54;20.54;100290.69;4497909;31;32937;-81
2022/03/01 11:31:17;;;;;;;;;;;;;;;12.13;21.17;100282.78;4498159;31;34155;-82
2022/03/01 11:34:02;;;;;;;;;;;;;;;11.01;21.62;100288.41;4498021;31;34787;-81
2022/03/01 11:36:29;;;;;;;;;;;;;;;11.87;20.49;100279.53;4497876;31;34169;-82
2022/03/01 11:39:13;;;;;;;;;;;;;;;10.64;21.40;100282.97;4498064;31;33630;-80
2022/03/01 11:41:45;;;;;;;;;;;;;;;11.95;20.57;100271.06;4497735;31;34055;-81
2022/03/01 11:44:13;;;;;;;;;;;;;;;11.32;20.04;100265.03;4496714;31;34335;-81
2022/03/01 11:46:41;;;;;;;;;;;;;;;12.58;19.37;100261.28;4497843;31;34151;-81
2022/03/01 11:49:09;;;;;;;;;;;;;;;11.44;20.26;100249.81;4497766;31;33394;-81
2022/03/01 11:51:39;;;;;;;;;;;;;;;12.37;20.17;100250.37;4497795;31;35131;-81
2022/03/01 11:54:12;;;;;;;;;;;;;;;12.06;19.92;100244.47;4497763;31;34120;-82
2022/03/01 11:56:41;;;;;;;;;;;;;;;12.36;19.45;100238.25;4496236;31;34947;-81
2022/03/01 11:59:09;;;;;;;;;;;;;;;12.68;18.16;100238.94;4498608;31;32892;-81
2022/03/01 12:01:36;;;;;;;;;;;;;;;11.86;18.67;100240.53;4499975;31;34620;-81
2022/03/01 12:04:05;;;;;;;;;;;;;;;12.24;18.21;100236.25;4498930;31;33928;-81
2022/03/01 12:06:33;;;;;;;;;;;;;;;12.90;18.16;100228.13;4499763;31;34173;-81
2022/03/01 12:09:03;;;;;;;;;;;;;;;12.49;19.71;100222.06;4500032;31;33451;-82
2022/03/01 12:11:32;;;;;;;;;;;;;;;12.87;17.92;100221.97;4498570;31;34208;-82
2022/03/01 12:14:06;;;;;;;;;;;;;;;11.81;19.58;100231.69;4499920;31;34621;-82
2022/03/01 12:16:34;;;;;;;;;;;;;;;11.80;19.04;100222.16;4498719;31;34187;-81
2022/03/01 12:19:12;;;;;;;;;;;;;;;11.98;19.65;100222.63;4472188;32;33793;-83
2022/03/01 12:21:58;;;;;;;;;;;;;;;13.04;17.79;100223.22;4469863;32;33870;-81
2022/03/01 12:24:27;;;;;;;;;;;;;;;12.27;18.34;100212.00;4484136;32;35114;-81
2022/03/01 12:26:57;;;;;;;;;;;;;;;12.85;17.31;100206.34;4483811;32;34272;-82
2022/03/01 12:29:46;;;;;;;;;;;;;;;13.34;16.78;100209.06;4482959;32;33109;-81
2022/03/01 12:32:16;;;;;;;;;;;;;;;13.22;16.54;100203.56;4482687;32;34185;-80
2022/03/01 12:34:43;;;;;;;;;;;;;;;12.49;18.28;100211.66;4482752;32;34531;-81
2022/03/01 12:37:14;;;;;;;;;;;;;;;12.65;17.28;100195.53;4483789;32;33956;-82
2022/03/01 12:39:41;;;;;;;;;;;;;;;12.80;18.27;100199.28;4482605;32;33601;-82
2022/03/01 12:42:09;;;;;;;;;;;;;;;12.95;16.77;100190.91;4483958;32;34179;-81
2022/03/01 12:44:36;;;;;;;;;;;;;;;13.45;15.61;100184.06;4484099;32;34476;-81
2022/03/01 12:47:06;;;;;;;;;;;;;;;13.59;16.05;100181.69;4483914;32;35115;-81
2022/03/01 12:49:34;;;;;;;;;;;;;;;14.14;15.25;100166.91;4484080;32;34124;-82